Time;durP1;ratioP1;P1;durP2;ratioP2;P2;SDS_P1;SDS_P2;PMS_P1;PMS_P2;Temp;Humidity;BMP_temperature;BMP_pressure;BME280_temperature;BME280_humidity;BME280_pressure;Samples;Min_cycle;Max_cycle;Signal;HPM_P1;HPM_P2
2022/08/20 00:00:28;;;;;;;12.65;11.35;;;18.30;86.60;;;;;;5075687;28;20029;-79
2022/08/20 00:03:01;;;;;;;12.95;11.63;;;18.20;86.50;;;;;;5075663;28;20070;-79
2022/08/20 00:05:36;;;;;;;11.48;10.30;;;18.30;86.60;;;;;;5075293;28;20044;-80
2022/08/20 00:08:03;;;;;;;12.90;10.93;;;18.20;86.40;;;;;;5074054;28;20020;-79
2022/08/20 00:10:30;;;;;;;12.13;10.93;;;18.20;86.30;;;;;;5075346;28;20116;-80
2022/08/20 00:12:56;;;;;;;12.13;10.52;;;18.20;86.30;;;;;;5075377;28;20051;-79
2022/08/20 00:15:27;;;;;;;12.95;10.73;;;18.20;86.40;;;;;;5075440;28;20385;-80
2022/08/20 00:17:53;;;;;;;15.55;11.65;;;18.10;86.40;;;;;;5075408;28;20028;-79
2022/08/20 00:20:21;;;;;;;12.57;11.18;;;18.10;86.50;;;;;;5075334;28;20099;-78
2022/08/20 00:22:46;;;;;;;12.18;10.48;;;18.10;86.70;;;;;;5075151;28;20036;-79
2022/08/20 00:25:13;;;;;;;13.80;11.32;;;18.10;86.80;;;;;;5075150;28;20037;-81
2022/08/20 00:27:39;;;;;;;12.15;10.95;;;18.10;86.80;;;;;;5075370;28;20030;-81
2022/08/20 00:30:09;;;;;;;13.15;11.60;;;18.10;86.80;;;;;;5075311;28;20104;-81
2022/08/20 00:32:45;;;;;;;12.70;11.38;;;18.10;86.90;;;;;;5075617;28;20047;-80
2022/08/20 00:35:13;;;;;;;12.60;11.30;;;18.00;87.00;;;;;;5074923;28;20387;-80
2022/08/20 00:37:39;;;;;;;13.20;11.70;;;18.00;87.00;;;;;;5075285;28;20062;-80
2022/08/20 00:40:06;;;;;;;13.25;11.75;;;17.90;87.30;;;;;;5075248;28;20033;-80
2022/08/20 00:42:43;;;;;;;13.10;11.85;;;17.80;87.30;;;;;;5075213;28;20066;-80
2022/08/20 00:45:10;;;;;;;12.55;11.35;;;17.80;87.70;;;;;;5075007;28;20492;-80
2022/08/20 00:47:39;;;;;;;14.23;12.75;;;17.70;88.30;;;;;;5075092;28;20131;-80
2022/08/20 00:50:06;;;;;;;12.70;10.68;;;17.60;88.30;;;;;;5075274;28;20043;-80
2022/08/20 00:52:32;;;;;;;12.68;10.90;;;17.60;88.70;;;;;;5074957;28;20035;-79
2022/08/20 00:55:00;;;;;;;14.57;12.00;;;17.60;88.90;;;;;;5075002;28;20099;-79
2022/08/20 00:57:38;;;;;;;13.52;12.10;;;17.60;89.50;;;;;;5074936;28;20025;-78
2022/08/20 01:00:09;;;;;;;12.07;10.88;;;17.50;89.30;;;;;;5075020;28;20028;-79
2022/08/20 01:02:35;;;;;;;11.48;10.27;;;17.50;89.40;;;;;;5074781;28;20501;-79
2022/08/20 01:05:03;;;;;;;12.25;11.05;;;17.50;89.50;;;;;;5074598;28;20036;-79
2022/08/20 01:07:33;;;;;;;11.32;10.20;;;17.50;89.70;;;;;;5074560;28;20484;-79
2022/08/20 01:10:01;;;;;;;12.07;10.57;;;17.50;89.80;;;;;;5073481;28;20384;-79
2022/08/20 01:12:29;;;;;;;11.63;10.52;;;17.50;89.90;;;;;;5074458;28;20017;-80
2022/08/20 01:14:57;;;;;;;11.73;10.52;;;17.50;91.00;;;;;;5074554;28;20028;-79
2022/08/20 01:17:25;;;;;;;10.65;9.60;;;17.50;90.00;;;;;;5074620;28;20020;-79
2022/08/20 01:20:12;;;;;;;12.30;10.48;;;17.50;90.00;;;;;;5074324;28;20032;-79
2022/08/20 01:25:48;;;;;;;9.43;7.60;;;17.60;89.70;;;;;;5074318;28;20079;-79
2022/08/20 01:28:16;;;;;;;9.35;7.10;;;17.60;88.30;;;;;;5074272;28;20021;-79
2022/08/20 01:30:42;;;;;;;8.55;7.65;;;17.70;87.50;;;;;;5073969;28;20029;-80
2022/08/20 01:33:08;;;;;;;8.13;7.32;;;17.70;87.90;;;;;;5074014;28;20025;-80
2022/08/20 01:35:38;;;;;;;9.23;8.32;;;17.70;88.20;;;;;;5079592;28;20031;-80
2022/08/20 01:38:05;;;;;;;8.63;7.78;;;17.70;88.40;;;;;;5084595;28;20020;-78
2022/08/20 01:40:56;;;;;;;9.23;8.23;;;17.80;88.50;;;;;;5080095;28;20367;-78
2022/08/20 01:43:22;;;;;;;9.60;8.60;;;17.80;89.50;;;;;;5069961;28;20111;-78
2022/08/20 01:45:49;;;;;;;11.38;9.02;;;17.80;88.80;;;;;;5072737;28;20456;-78
2022/08/20 01:48:16;;;;;;;10.18;7.88;;;17.70;88.90;;;;;;5073754;28;20384;-78
2022/08/20 01:50:46;;;;;;;9.68;8.32;;;17.80;89.00;;;;;;5073665;28;20024;-78
2022/08/20 01:53:20;;;;;;;9.88;8.85;;;17.80;89.10;;;;;;5073672;28;20024;-79
2022/08/20 01:55:46;;;;;;;7.80;7.00;;;17.80;89.20;;;;;;5073545;28;20037;-77
2022/08/20 01:58:12;;;;;;;7.68;6.90;;;17.80;88.50;;;;;;5073635;28;20469;-79
2022/08/20 02:00:38;;;;;;;8.35;7.57;;;17.80;88.40;;;;;;5073395;28;20021;-80
2022/08/20 02:03:04;;;;;;;9.18;8.27;;;17.80;88.60;;;;;;5073351;28;20025;-79
2022/08/20 02:05:32;;;;;;;8.93;8.02;;;17.80;88.70;;;;;;5073237;28;20127;-81
2022/08/20 02:07:59;;;;;;;9.20;7.28;;;17.80;88.80;;;;;;5073335;28;20050;-80
2022/08/20 02:10:24;;;;;;;10.45;9.27;;;17.80;88.80;;;;;;5073178;28;20537;-80
2022/08/20 02:12:51;;;;;;;10.75;9.02;;;17.80;89.00;;;;;;5073381;28;20040;-80
2022/08/20 02:15:16;;;;;;;8.80;8.00;;;17.80;89.30;;;;;;5073191;28;20044;-80
2022/08/20 02:17:42;;;;;;;11.57;9.07;;;17.80;89.30;;;;;;5073264;28;20109;-80
2022/08/20 02:20:14;;;;;;;9.32;7.55;;;17.70;89.60;;;;;;5071750;28;20032;-79
2022/08/20 02:22:48;;;;;;;8.38;7.20;;;17.70;89.80;;;;;;5073143;28;20028;-79
2022/08/20 02:25:15;;;;;;;8.30;7.40;;;17.60;89.50;;;;;;5073101;28;20025;-79
2022/08/20 02:27:44;;;;;;;9.50;7.40;;;17.60;89.70;;;;;;5072860;28;20049;-80
2022/08/20 02:30:14;;;;;;;6.95;6.35;;;17.50;90.10;;;;;;5073023;28;20078;-79
2022/08/20 02:32:40;;;;;;;10.38;7.80;;;17.50;90.00;;;;;;5073168;28;20121;-80
2022/08/20 02:35:09;;;;;;;7.13;6.43;;;17.40;89.80;;;;;;5073237;28;20055;-78
2022/08/20 02:37:36;;;;;;;7.13;6.43;;;17.40;90.10;;;;;;5073194;28;20036;-80
2022/08/20 02:40:06;;;;;;;6.28;5.68;;;17.40;90.20;;;;;;5073244;28;20024;-79
2022/08/20 02:42:33;;;;;;;6.43;5.82;;;17.40;90.30;;;;;;5072986;28;20017;-80
2022/08/20 02:44:58;;;;;;;7.10;6.40;;;17.40;90.40;;;;;;5072784;28;20083;-80
2022/08/20 02:47:26;;;;;;;6.88;6.22;;;17.40;90.50;;;;;;5073057;28;20037;-79
2022/08/20 02:49:53;;;;;;;7.30;6.60;;;17.40;90.40;;;;;;5073110;28;20402;-80
2022/08/20 02:52:19;;;;;;;6.78;6.03;;;17.40;90.40;;;;;;5073102;28;20027;-80
2022/08/20 02:54:44;;;;;;;6.70;6.00;;;17.40;90.40;;;;;;5072835;28;20021;-79
2022/08/20 02:57:14;;;;;;;6.38;5.75;;;17.40;90.30;;;;;;5072776;28;20500;-79
2022/08/20 02:59:40;;;;;;;6.72;6.10;;;17.40;90.30;;;;;;5072955;28;20020;-78
2022/08/20 03:02:05;;;;;;;8.20;6.25;;;17.40;90.30;;;;;;5072971;28;20101;-79
2022/08/20 03:04:31;;;;;;;8.35;6.45;;;17.30;90.10;;;;;;5072899;28;20204;-80
2022/08/20 03:06:57;;;;;;;8.07;5.30;;;17.30;90.10;;;;;;5072831;28;20032;-80
2022/08/20 03:09:23;;;;;;;6.32;5.68;;;17.30;90.30;;;;;;5072858;28;20534;-80
2022/08/20 03:11:48;;;;;;;7.40;4.93;;;17.30;90.20;;;;;;5073078;28;20028;-79
2022/08/20 03:14:14;;;;;;;4.90;4.50;;;17.30;90.00;;;;;;5072877;28;20027;-79
2022/08/20 03:16:40;;;;;;;5.85;4.70;;;17.30;90.00;;;;;;5072783;28;20036;-78
2022/08/20 03:19:05;;;;;;;6.18;5.15;;;17.30;90.10;;;;;;5072779;28;20028;-79
2022/08/20 03:21:31;;;;;;;5.20;4.70;;;17.30;90.10;;;;;;5072751;28;20046;-79
2022/08/20 03:23:56;;;;;;;6.78;4.63;;;17.30;90.20;;;;;;5071114;28;20388;-78
2022/08/20 03:26:22;;;;;;;5.25;4.75;;;17.30;90.20;;;;;;5072562;28;20032;-79
2022/08/20 03:28:47;;;;;;;5.93;5.18;;;17.30;89.80;;;;;;5072439;28;20082;-80
2022/08/20 03:31:14;;;;;;;6.68;5.05;;;17.30;89.80;;;;;;5072821;28;20111;-80
2022/08/20 03:33:39;;;;;;;6.03;5.40;;;17.30;89.80;;;;;;5071395;28;20078;-80
2022/08/20 03:36:06;;;;;;;7.47;4.88;;;17.30;89.90;;;;;;5072682;28;20032;-79
2022/08/20 03:38:32;;;;;;;5.60;4.70;;;17.20;89.90;;;;;;5072750;28;20017;-78
2022/08/20 03:40:58;;;;;;;5.22;4.72;;;17.20;89.90;;;;;;5071317;28;20021;-81
2022/08/20 03:43:24;;;;;;;8.88;5.25;;;17.20;89.90;;;;;;5072459;28;20096;-80
2022/08/20 03:45:50;;;;;;;5.95;5.25;;;17.20;90.00;;;;;;5070998;28;20052;-80
2022/08/20 03:48:18;;;;;;;8.48;5.25;;;17.10;89.90;;;;;;5072299;28;20155;-79
2022/08/20 03:50:46;;;;;;;6.25;4.68;;;17.10;90.00;;;;;;5072418;28;20119;-78
2022/08/20 03:53:13;;;;;;;5.00;4.30;;;17.10;90.10;;;;;;5072469;28;20027;-79
2022/08/20 03:55:40;;;;;;;4.57;4.18;;;17.00;89.90;;;;;;5072428;28;20028;-78
2022/08/20 03:58:07;;;;;;;6.65;4.20;;;17.10;90.00;;;;;;5070892;28;20025;-78
2022/08/20 04:00:43;;;;;;;5.15;4.60;;;17.00;89.80;;;;;;5071046;28;20443;-78
2022/08/20 04:03:09;;;;;;;4.82;4.38;;;17.00;89.70;;;;;;5072366;28;20074;-79
2022/08/20 04:05:39;;;;;;;6.50;5.03;;;16.90;89.90;;;;;;5072253;28;20046;-78
2022/08/20 04:08:11;;;;;;;5.80;5.18;;;16.90;90.10;;;;;;5071139;28;20385;-79
2022/08/20 04:10:36;;;;;;;6.55;4.80;;;16.90;90.00;;;;;;5075619;28;20029;-79
2022/08/20 04:13:04;;;;;;;6.57;5.63;;;16.90;90.10;;;;;;5090003;28;20020;-79
2022/08/20 04:15:31;;;;;;;6.63;5.55;;;16.90;90.20;;;;;;5094591;28;20052;-79
2022/08/20 04:17:56;;;;;;;5.45;4.95;;;16.80;90.40;;;;;;5092250;28;20040;-79
2022/08/20 04:20:24;;;;;;;5.70;4.88;;;16.80;91.30;;;;;;5089126;28;20028;-79
2022/08/20 04:22:54;;;;;;;6.55;5.43;;;16.80;90.40;;;;;;5075424;28;20055;-79
2022/08/20 04:25:20;;;;;;;8.35;5.47;;;16.70;90.50;;;;;;5075166;28;20016;-79
2022/08/20 04:27:49;;;;;;;6.85;5.20;;;16.70;90.60;;;;;;5075261;28;20025;-79
2022/08/20 04:30:15;;;;;;;8.00;5.40;;;16.70;90.70;;;;;;5075202;28;20469;-79
2022/08/20 04:32:41;;;;;;;6.13;5.53;;;16.70;90.50;;;;;;5075187;28;20068;-78
2022/08/20 04:35:13;;;;;;;6.43;5.20;;;16.70;90.50;;;;;;5075140;28;20396;-78
2022/08/20 04:37:39;;;;;;;6.30;5.28;;;16.60;90.60;;;;;;5075188;28;20021;-79
2022/08/20 04:42:53;;;;;;;6.38;4.90;;;16.70;90.80;;;;;;5074994;28;20031;-80
2022/08/20 04:45:20;;;;;;;7.72;5.05;;;16.70;90.70;;;;;;5074988;28;20040;-80
2022/08/20 04:47:47;;;;;;;9.07;4.50;;;16.70;90.50;;;;;;5075462;28;20484;-79
2022/08/20 04:50:13;;;;;;;7.05;4.57;;;16.70;90.50;;;;;;5076223;28;20032;-79
2022/08/20 04:52:39;;;;;;;6.32;4.63;;;16.80;90.50;;;;;;5074259;28;20077;-80
2022/08/20 04:55:06;;;;;;;6.15;4.78;;;16.80;90.50;;;;;;5083950;28;20084;-77
2022/08/20 04:57:34;;;;;;;5.43;4.20;;;16.80;90.50;;;;;;5074669;28;20033;-78
2022/08/20 04:59:59;;;;;;;5.93;4.43;;;16.90;90.50;;;;;;5074747;28;20016;-78
2022/08/20 05:02:25;;;;;;;7.75;4.93;;;16.90;90.40;;;;;;5073351;28;20432;-80
2022/08/20 05:04:51;;;;;;;6.82;6.13;;;16.90;90.30;;;;;;5074566;28;20017;-80
2022/08/20 05:07:20;;;;;;;7.05;6.20;;;17.00;90.00;;;;;;5074449;28;20027;-78
2022/08/20 05:09:46;;;;;;;6.65;5.95;;;17.00;89.90;;;;;;5073090;28;20021;-79
2022/08/20 05:12:14;;;;;;;6.97;6.05;;;16.90;90.00;;;;;;5074383;28;20492;-78
2022/08/20 05:14:40;;;;;;;9.82;5.30;;;16.90;90.20;;;;;;5074336;28;20077;-78
2022/08/20 05:17:06;;;;;;;7.50;5.45;;;16.90;90.40;;;;;;5074420;28;20443;-79
2022/08/20 05:19:34;;;;;;;8.35;4.82;;;17.00;90.10;;;;;;5074122;28;20107;-78
2022/08/20 05:22:00;;;;;;;8.43;5.68;;;17.00;89.90;;;;;;5072979;28;20199;-78
2022/08/20 05:24:26;;;;;;;6.45;5.43;;;17.00;89.80;;;;;;5074212;28;20126;-78
2022/08/20 05:26:54;;;;;;;5.82;5.18;;;17.00;89.80;;;;;;5072903;28;20463;-80
2022/08/20 05:29:21;;;;;;;8.23;4.93;;;17.10;90.00;;;;;;5074017;28;20348;-79
2022/08/20 05:31:47;;;;;;;6.32;5.57;;;17.10;90.00;;;;;;5073953;28;20020;-79
2022/08/20 05:34:12;;;;;;;6.20;5.03;;;17.20;89.90;;;;;;5072501;28;20024;-79
2022/08/20 05:36:41;;;;;;;15.02;6.57;;;17.20;89.80;;;;;;5073936;28;20032;-80
2022/08/20 05:39:08;;;;;;;6.47;5.82;;;17.20;89.90;;;;;;5073686;28;20052;-79
2022/08/20 05:41:33;;;;;;;7.85;5.20;;;17.20;90.00;;;;;;5073878;28;20031;-79
2022/08/20 05:44:02;;;;;;;5.32;4.82;;;17.20;90.20;;;;;;5073526;28;20024;-79
2022/08/20 05:46:31;;;;;;;7.68;5.30;;;17.20;90.30;;;;;;5073549;28;20039;-79
2022/08/20 05:48:56;;;;;;;7.07;5.57;;;17.30;90.30;;;;;;5073463;28;20024;-79
2022/08/20 05:51:22;;;;;;;5.63;5.05;;;17.30;90.40;;;;;;5073301;28;20028;-78
2022/08/20 05:53:47;;;;;;;5.60;4.93;;;17.40;90.30;;;;;;5073416;28;20021;-78
2022/08/20 05:56:13;;;;;;;6.30;5.00;;;17.40;90.30;;;;;;5073521;28;20036;-78
2022/08/20 05:58:39;;;;;;;5.38;4.70;;;17.40;90.00;;;;;;5073315;28;20055;-77
2022/08/20 06:01:04;;;;;;;5.35;4.85;;;17.50;90.00;;;;;;5073364;28;20031;-80
2022/08/20 06:06:15;;;;;;;5.28;4.72;;;17.50;89.80;;;;;;5073334;28;20097;-79
2022/08/20 06:08:40;;;;;;;5.53;5.03;;;17.60;89.60;;;;;;5073165;28;20024;-79
2022/08/20 06:11:06;;;;;;;5.80;5.20;;;17.70;89.60;;;;;;5071913;28;20109;-79
2022/08/20 06:13:33;;;;;;;5.60;5.10;;;17.70;89.30;;;;;;5073029;28;20032;-80
2022/08/20 06:16:00;;;;;;;5.72;5.13;;;17.80;89.10;;;;;;5073101;28;20025;-80
2022/08/20 06:18:25;;;;;;;7.50;4.93;;;18.00;89.00;;;;;;5073091;28;20017;-79
2022/08/20 06:20:51;;;;;;;6.00;4.72;;;18.10;88.70;;;;;;5072984;28;20027;-76
2022/08/20 06:23:17;;;;;;;5.45;4.90;;;18.20;88.30;;;;;;5072904;28;20099;-78
2022/08/20 06:25:43;;;;;;;5.32;4.78;;;18.20;88.00;;;;;;5072846;28;20039;-78
2022/08/20 06:28:09;;;;;;;5.97;4.38;;;18.30;88.00;;;;;;5072698;28;20020;-78
2022/08/20 06:30:35;;;;;;;6.15;5.20;;;18.40;88.00;;;;;;5073423;28;20077;-79
2022/08/20 06:33:01;;;;;;;7.75;5.22;;;18.40;88.00;;;;;;5073278;28;20016;-79
2022/08/20 06:35:26;;;;;;;10.93;6.60;;;18.40;87.80;;;;;;5072755;28;20370;-78
2022/08/20 06:37:52;;;;;;;6.25;5.40;;;18.40;87.70;;;;;;5072879;28;20024;-78
2022/08/20 06:40:23;;;;;;;6.43;4.97;;;18.50;88.00;;;;;;5073063;28;20024;-80
2022/08/20 06:42:49;;;;;;;8.25;6.18;;;18.50;88.20;;;;;;5072772;28;20377;-77
2022/08/20 06:45:23;;;;;;;5.68;5.13;;;18.50;88.10;;;;;;5073463;28;20114;-83
2022/08/20 06:47:50;;;;;;;8.73;6.03;;;18.50;88.00;;;;;;5074351;28;20027;-82
2022/08/20 06:50:21;;;;;;;8.15;4.95;;;18.60;87.90;;;;;;5091760;28;20028;-77
2022/08/20 06:52:47;;;;;;;7.45;5.13;;;18.70;87.70;;;;;;5091402;28;20031;-78
2022/08/20 06:55:15;;;;;;;5.55;4.95;;;18.80;87.40;;;;;;5093076;28;20025;-78
2022/08/20 06:57:42;;;;;;;8.63;5.90;;;18.90;87.00;;;;;;5080455;28;20035;-81
2022/08/20 07:00:17;;;;;;;6.35;4.68;;;19.00;86.40;;;;;;5072971;28;20016;-78
2022/08/20 07:02:45;;;;;;;4.93;4.53;;;19.10;86.20;;;;;;5072433;28;20099;-77
2022/08/20 07:05:10;;;;;;;5.55;4.45;;;19.30;85.80;;;;;;5072559;28;20029;-78
2022/08/20 07:07:37;;;;;;;13.05;5.53;;;19.40;85.40;;;;;;5073469;28;20024;-88
2022/08/20 07:10:16;;;;;;;5.25;4.70;;;19.50;84.90;;;;;;5073366;28;20484;-78
2022/08/20 07:12:41;;;;;;;9.45;4.97;;;19.60;84.40;;;;;;5072540;28;20036;-77
2022/08/20 07:15:09;;;;;;;7.35;4.60;;;19.70;83.80;;;;;;5072533;28;20020;-79
2022/08/20 07:17:36;;;;;;;5.43;4.07;;;19.90;82.80;;;;;;5072497;28;20062;-78
2022/08/20 07:20:11;;;;;;;9.90;4.50;;;20.10;81.90;;;;;;5072328;28;20028;-78
2022/08/20 07:22:36;;;;;;;7.63;4.30;;;20.30;80.90;;;;;;5072425;28;20484;-78
2022/08/20 07:25:04;;;;;;;7.05;4.82;;;20.40;80.30;;;;;;5072427;28;20165;-79
2022/08/20 07:27:30;;;;;;;8.18;4.40;;;20.50;79.80;;;;;;5072414;28;20020;-78
2022/08/20 07:32:40;;;;;;;9.05;4.65;;;20.80;77.70;;;;;;5072336;28;20044;-77
2022/08/20 07:35:09;;;;;;;8.18;4.82;;;20.90;77.10;;;;;;5078218;28;20024;-77
2022/08/20 07:37:42;;;;;;;6.82;4.35;;;21.00;76.20;;;;;;5052197;28;20022;-78
2022/08/20 07:40:13;;;;;;;7.15;5.22;;;21.20;75.60;;;;;;5051770;28;20029;-81
2022/08/20 07:42:39;;;;;;;7.95;5.22;;;21.20;75.10;;;;;;5050918;28;20017;-81
2022/08/20 07:45:09;;;;;;;6.93;5.35;;;21.20;74.80;;;;;;5054738;28;20047;-82
2022/08/20 07:47:40;;;;;;;6.88;4.60;;;21.40;74.40;;;;;;5056083;28;20025;-83
2022/08/20 07:50:08;;;;;;;5.00;4.43;;;21.30;73.20;;;;;;5055844;28;20028;-84
2022/08/20 07:52:36;;;;;;;7.40;5.35;;;21.40;72.90;;;;;;5055892;28;20059;-82
2022/08/20 07:55:04;;;;;;;6.07;4.13;;;21.30;72.60;;;;;;5056052;28;20095;-80
2022/08/20 07:57:30;;;;;;;6.55;3.83;;;21.10;74.40;;;;;;5055544;28;20056;-81
2022/08/20 07:59:57;;;;;;;5.30;3.97;;;21.30;74.20;;;;;;5055821;28;20427;-79
2022/08/20 08:02:24;;;;;;;6.32;3.72;;;21.50;73.00;;;;;;5055162;28;20049;-77
2022/08/20 08:04:49;;;;;;;6.93;3.80;;;21.70;72.50;;;;;;5055197;28;20033;-77
2022/08/20 08:07:15;;;;;;;5.57;4.03;;;21.90;71.90;;;;;;5055423;28;20116;-76
2022/08/20 08:09:43;;;;;;;5.90;4.00;;;22.10;71.10;;;;;;5055257;28;20389;-79
2022/08/20 08:12:11;;;;;;;4.18;3.78;;;22.20;69.60;;;;;;5055394;28;20040;-78
2022/08/20 08:14:38;;;;;;;6.10;3.90;;;22.20;69.50;;;;;;5055343;28;20079;-78
2022/08/20 08:17:05;;;;;;;6.85;4.40;;;22.20;69.00;;;;;;5055111;28;20029;-78
2022/08/20 08:19:38;;;;;;;5.40;4.10;;;22.10;69.00;;;;;;5055110;28;20496;-78
2022/08/20 08:22:06;;;;;;;5.35;3.83;;;21.40;71.80;;;;;;5055122;28;20033;-78
2022/08/20 08:24:33;;;;;;;4.50;4.05;;;21.40;72.10;;;;;;5054964;28;20024;-76
2022/08/20 08:26:59;;;;;;;8.88;4.85;;;21.50;71.80;;;;;;5054746;28;20037;-78
2022/08/20 08:29:25;;;;;;;6.80;4.57;;;21.30;72.60;;;;;;5054896;28;20021;-78
2022/08/20 08:31:50;;;;;;;7.00;4.03;;;21.00;73.60;;;;;;5055024;28;20103;-77
2022/08/20 08:34:16;;;;;;;3.92;3.53;;;20.80;75.00;;;;;;5054893;28;20112;-78
2022/08/20 08:36:42;;;;;;;4.93;4.13;;;20.90;73.90;;;;;;5054813;28;20021;-77
2022/08/20 08:39:08;;;;;;;5.72;3.80;;;21.10;73.50;;;;;;5054681;28;20028;-76
2022/08/20 08:41:38;;;;;;;4.47;4.07;;;21.20;72.30;;;;;;5054899;28;20029;-76
2022/08/20 08:44:13;;;;;;;7.63;3.60;;;21.30;72.50;;;;;;5054503;28;20036;-76
2022/08/20 08:46:43;;;;;;;5.47;3.97;;;21.20;71.20;;;;;;5054761;28;20040;-76
2022/08/20 08:49:19;;;;;;;7.28;4.15;;;21.60;70.70;;;;;;5054515;28;20040;-77
2022/08/20 08:51:50;;;;;;;4.72;3.83;;;22.00;69.60;;;;;;5054394;28;20052;-76
2022/08/20 08:54:19;;;;;;;4.43;3.25;;;22.00;69.30;;;;;;5054245;28;20417;-77
2022/08/20 08:56:45;;;;;;;4.15;2.88;;;22.20;69.00;;;;;;5054212;28;20028;-77
2022/08/20 08:59:12;;;;;;;5.35;3.33;;;22.30;68.10;;;;;;5054392;28;20079;-76
2022/08/20 09:01:45;;;;;;;6.78;3.60;;;22.40;67.20;;;;;;5054201;28;20401;-77
2022/08/20 09:04:12;;;;;;;3.75;3.17;;;22.30;67.80;;;;;;5054028;28;20476;-77
2022/08/20 09:06:39;;;;;;;4.13;3.72;;;22.20;68.10;;;;;;5054061;28;20114;-77
2022/08/20 09:09:06;;;;;;;4.28;3.83;;;22.30;68.30;;;;;;5054421;28;20053;-77
2022/08/20 09:11:48;;;;;;;5.70;3.28;;;22.10;69.60;;;;;;5054329;28;20021;-77
2022/08/20 09:14:13;;;;;;;3.28;2.97;;;22.20;68.40;;;;;;5054511;28;20438;-78
2022/08/20 09:16:39;;;;;;;5.72;3.60;;;22.20;68.40;;;;;;5054173;28;20048;-77
2022/08/20 09:19:04;;;;;;;4.43;3.70;;;22.20;67.40;;;;;;5066598;28;20029;-77
2022/08/20 09:21:30;;;;;;;3.75;3.33;;;22.10;67.70;;;;;;5056758;28;20461;-76
2022/08/20 09:23:56;;;;;;;2.95;2.65;;;22.00;68.00;;;;;;5054406;28;20036;-76
2022/08/20 09:26:21;;;;;;;5.43;3.10;;;21.90;67.50;;;;;;5054081;28;20028;-73
2022/08/20 09:28:47;;;;;;;3.05;2.80;;;21.30;70.50;;;;;;5053865;28;20021;-73
2022/08/20 09:31:12;;;;;;;3.70;2.92;;;21.20;70.70;;;;;;5053942;28;20032;-74
2022/08/20 09:33:38;;;;;;;4.97;3.88;;;21.10;71.90;;;;;;5053652;28;20021;-74
2022/08/20 09:36:04;;;;;;;5.25;3.20;;;21.00;73.10;;;;;;5053756;28;20032;-75
2022/08/20 09:38:29;;;;;;;5.80;5.05;;;21.00;73.40;;;;;;5053685;28;20094;-74
2022/08/20 09:40:55;;;;;;;4.03;2.97;;;21.00;72.50;;;;;;5053086;28;20024;-73
2022/08/20 09:43:20;;;;;;;3.88;1.50;;;20.90;72.70;;;;;;5053288;28;20021;-74
2022/08/20 09:45:46;;;;;;;3.42;2.13;;;20.60;74.40;;;;;;5053239;28;20048;-73
2022/08/20 09:48:12;;;;;;;3.92;2.13;;;20.50;74.90;;;;;;5053550;28;20024;-73
2022/08/20 09:50:42;;;;;;;3.55;2.00;;;20.50;75.80;;;;;;5053525;28;20032;-73
2022/08/20 09:53:09;;;;;;;2.20;1.38;;;20.60;76.00;;;;;;5052036;28;20495;-73
2022/08/20 09:55:43;;;;;;;3.83;2.47;;;20.60;75.90;;;;;;5053209;28;20017;-73
2022/08/20 09:58:38;;;;;;;3.25;1.63;;;20.70;76.10;;;;;;5053192;28;20025;-75
2022/08/20 10:01:14;;;;;;;2.38;1.60;;;20.60;76.40;;;;;;5053239;28;20420;-75
2022/08/20 10:03:40;;;;;;;2.47;1.42;;;20.40;78.30;;;;;;5053203;28;20048;-74
2022/08/20 10:06:06;;;;;;;4.40;1.50;;;20.40;78.40;;;;;;5052469;28;20033;-74
2022/08/20 10:08:31;;;;;;;1.83;1.38;;;20.50;78.60;;;;;;5052693;28;20032;-74
2022/08/20 10:10:57;;;;;;;3.28;1.40;;;20.40;78.60;;;;;;5053079;28;20082;-74
2022/08/20 10:13:23;;;;;;;3.65;2.00;;;20.30;78.30;;;;;;5086707;28;20047;-74
2022/08/20 10:15:48;;;;;;;1.40;1.30;;;20.30;78.20;;;;;;5058756;28;20025;-75
2022/08/20 10:18:14;;;;;;;2.22;1.17;;;20.30;76.40;;;;;;5053373;28;20033;-74
2022/08/20 10:20:40;;;;;;;2.20;1.58;;;20.30;76.40;;;;;;5052861;28;20029;-75
2022/08/20 10:23:06;;;;;;;1.42;1.33;;;20.30;77.30;;;;;;5052938;28;20495;-75
2022/08/20 10:25:31;;;;;;;4.43;1.30;;;20.30;78.20;;;;;;5051275;28;20052;-75
2022/08/20 10:27:58;;;;;;;1.50;1.40;;;20.30;76.90;;;;;;5052647;28;20107;-75
2022/08/20 10:30:23;;;;;;;2.97;1.17;;;20.20;76.20;;;;;;5052671;28;20017;-74
2022/08/20 10:32:49;;;;;;;1.67;1.33;;;20.30;75.80;;;;;;5052888;28;20044;-77
2022/08/20 10:35:15;;;;;;;1.60;1.35;;;20.40;74.80;;;;;;5052754;28;20021;-77
2022/08/20 10:37:41;;;;;;;1.63;1.40;;;20.40;74.60;;;;;;5052713;28;20032;-78
2022/08/20 10:40:07;;;;;;;1.70;1.60;;;20.40;75.60;;;;;;5052786;28;20033;-77
2022/08/20 10:42:33;;;;;;;2.05;1.88;;;20.50;75.70;;;;;;5051122;28;20119;-76
2022/08/20 10:44:58;;;;;;;2.05;1.85;;;20.70;75.00;;;;;;5052306;28;20531;-77
2022/08/20 10:47:28;;;;;;;4.25;2.40;;;20.90;74.30;;;;;;5052554;28;20332;-77
2022/08/20 10:49:57;;;;;;;3.70;2.08;;;21.10;74.10;;;;;;5052793;28;20354;-76
2022/08/20 10:52:23;;;;;;;3.65;2.13;;;21.20;73.40;;;;;;5052591;28;20044;-77
2022/08/20 10:54:49;;;;;;;4.20;2.03;;;21.50;72.10;;;;;;5052588;28;20032;-77
2022/08/20 10:57:27;;;;;;;2.63;1.80;;;21.80;71.80;;;;;;5052863;28;20025;-77
2022/08/20 10:59:55;;;;;;;1.88;1.67;;;22.00;71.00;;;;;;5178810;23;20061;-77
2022/08/20 11:02:21;;;;;;;3.08;1.38;;;22.00;71.10;;;;;;5016892;28;20431;-78
2022/08/20 11:04:47;;;;;;;3.42;1.20;;;22.20;69.70;;;;;;5032719;28;20028;-76
2022/08/20 11:07:34;;;;;;;1.33;1.23;;;22.40;68.40;;;;;;5014691;28;20033;-77
2022/08/20 11:10:00;;;;;;;3.22;1.70;;;22.40;69.40;;;;;;5014444;28;20167;-75
2022/08/20 11:12:26;;;;;;;3.13;1.90;;;22.50;68.00;;;;;;5014903;28;20056;-76
2022/08/20 11:14:53;;;;;;;1.77;1.45;;;22.50;67.20;;;;;;5015334;28;20466;-76
2022/08/20 11:17:24;;;;;;;3.17;1.80;;;22.60;67.70;;;;;;5015469;28;20099;-76
2022/08/20 11:19:51;;;;;;;2.38;2.00;;;22.40;68.60;;;;;;5019033;28;20071;-76
2022/08/20 11:22:17;;;;;;;1.40;1.30;;;22.40;69.50;;;;;;5018661;28;20080;-76
2022/08/20 11:24:43;;;;;;;1.48;1.00;;;22.50;69.40;;;;;;5018981;28;20029;-74
2022/08/20 11:27:09;;;;;;;9.48;1.50;;;22.40;70.30;;;;;;5018551;28;20056;-82
2022/08/20 11:29:37;;;;;;;4.78;1.77;;;21.90;75.10;;;;;;5035835;28;20444;-74
2022/08/20 11:32:04;;;;;;;2.45;0.88;;;21.40;78.80;;;;;;5018588;28;20025;-74
2022/08/20 11:34:30;;;;;;;4.95;1.30;;;20.70;79.50;;;;;;5018519;28;20028;-75
2022/08/20 11:36:57;;;;;;;1.20;0.70;;;20.10;81.30;;;;;;5018609;28;20026;-75
2022/08/20 11:39:24;;;;;;;1.23;0.80;;;19.80;83.40;;;;;;5018867;28;20029;-74
2022/08/20 11:41:49;;;;;;;2.80;1.13;;;19.90;84.20;;;;;;5018754;28;20103;-74
2022/08/20 11:44:15;;;;;;;1.83;0.80;;;20.10;82.40;;;;;;5018840;28;20601;-74
2022/08/20 11:46:41;;;;;;;2.75;1.02;;;20.20;82.10;;;;;;5018577;28;20034;-74
2022/08/20 11:49:07;;;;;;;2.17;0.80;;;20.40;82.90;;;;;;5018225;28;20120;-74
2022/08/20 11:51:33;;;;;;;0.85;0.80;;;20.50;82.20;;;;;;5017984;28;20033;-74
2022/08/20 11:53:59;;;;;;;0.63;0.63;;;20.40;83.20;;;;;;5018276;28;20026;-73
2022/08/20 11:56:24;;;;;;;0.70;0.70;;;20.40;83.30;;;;;;5018011;28;20021;-74
2022/08/20 11:58:50;;;;;;;1.85;0.70;;;20.40;80.50;;;;;;5014432;28;20133;-74
2022/08/20 12:01:16;;;;;;;3.22;0.50;;;20.50;81.80;;;;;;5014351;28;20108;-74
2022/08/20 12:03:41;;;;;;;1.20;0.57;;;20.50;81.00;;;;;;5014393;28;20088;-74
2022/08/20 12:06:07;;;;;;;0.50;0.50;;;20.40;81.30;;;;;;5014448;28;20036;-74
2022/08/20 12:08:32;;;;;;;1.10;0.60;;;20.60;81.10;;;;;;5014438;28;20025;-74
2022/08/20 12:11:01;;;;;;;0.95;0.65;;;20.60;80.90;;;;;;5014402;28;20037;-76
2022/08/20 12:13:29;;;;;;;1.75;0.63;;;20.70;81.60;;;;;;5013969;28;20045;-75
2022/08/20 12:15:55;;;;;;;0.40;0.40;;;21.00;78.30;;;;;;5014039;28;20052;-74
2022/08/20 12:18:21;;;;;;;0.50;0.50;;;21.20;77.80;;;;;;5014191;28;20028;-74
2022/08/20 12:20:47;;;;;;;0.35;0.32;;;21.50;76.50;;;;;;5013944;28;20030;-74
2022/08/20 12:23:13;;;;;;;0.40;0.30;;;21.60;77.20;;;;;;5014162;28;20376;-75
2022/08/20 12:25:39;;;;;;;0.38;0.28;;;21.80;75.50;;;;;;5014302;28;20033;-75
2022/08/20 12:28:05;;;;;;;0.30;0.30;;;22.10;73.60;;;;;;5014657;28;20478;-74
2022/08/20 12:30:31;;;;;;;0.60;0.60;;;22.40;71.10;;;;;;5013219;28;20033;-75
2022/08/20 12:32:57;;;;;;;1.20;0.40;;;22.60;72.50;;;;;;5013880;28;20050;-76
2022/08/20 12:35:23;;;;;;;0.28;0.20;;;23.00;70.70;;;;;;5013484;28;20127;-75
2022/08/20 12:37:49;;;;;;;0.10;0.10;;;23.20;68.40;;;;;;5013814;28;20364;-73
2022/08/20 12:40:23;;;;;;;0.30;0.20;;;23.50;68.30;;;;;;5014002;28;20075;-76
2022/08/20 12:42:48;;;;;;;0.30;0.30;;;23.60;67.40;;;;;;5013940;28;20022;-74
2022/08/20 12:45:15;;;;;;;0.52;0.30;;;23.50;65.90;;;;;;5013614;28;20386;-73
2022/08/20 12:47:44;;;;;;;0.20;0.20;;;23.00;68.00;;;;;;5029992;28;20030;-75
2022/08/20 12:50:22;;;;;;;1.00;0.30;;;22.60;70.20;;;;;;5013688;28;20037;-75
2022/08/20 12:52:48;;;;;;;0.50;0.30;;;22.40;71.30;;;;;;5030309;28;20026;-73
2022/08/20 12:55:17;;;;;;;0.55;0.20;;;22.90;70.70;;;;;;5013706;28;20127;-73
2022/08/20 12:57:46;;;;;;;1.63;0.63;;;23.30;68.30;;;;;;5013765;28;20029;-73